sensor_id;sensor_type;location;lat;lon;timestamp;pressure;altitude;pressure_sealevel;temperature;humidity
68107;BME280;54892;47.488;19.026;2022-09-16T00:01:09;99121.94;;;17.59;87.93
68107;BME280;54892;47.488;19.026;2022-09-16T00:04:13;99120.12;;;17.51;87.66
68107;BME280;54892;47.488;19.026;2022-09-16T00:07:16;99117.50;;;17.42;86.81
68107;BME280;54892;47.488;19.026;2022-09-16T00:10:21;99123.78;;;17.68;85.94
68107;BME280;54892;47.488;19.026;2022-09-16T00:13:24;99135.41;;;17.63;85.64
68107;BME280;54892;47.488;19.026;2022-09-16T00:16:28;99129.63;;;17.61;86.14
68107;BME280;54892;47.488;19.026;2022-09-16T00:19:32;99133.25;;;17.56;84.30
68107;BME280;54892;47.488;19.026;2022-09-16T00:22:36;99144.72;;;17.57;84.92
68107;BME280;54892;47.488;19.026;2022-09-16T00:25:39;99158.25;;;17.52;83.70
68107;BME280;54892;47.488;19.026;2022-09-16T00:28:42;99148.81;;;17.54;83.70
68107;BME280;54892;47.488;19.026;2022-09-16T00:31:45;99150.13;;;17.48;84.34
68107;BME280;54892;47.488;19.026;2022-09-16T00:34:50;99144.72;;;17.27;85.20
68107;BME280;54892;47.488;19.026;2022-09-16T00:37:54;99146.50;;;17.14;85.56
68107;BME280;54892;47.488;19.026;2022-09-16T00:40:57;99156.56;;;17.08;86.26
68107;BME280;54892;47.488;19.026;2022-09-16T00:44:01;99164.56;;;17.08;86.42
68107;BME280;54892;47.488;19.026;2022-09-16T00:47:05;99169.87;;;17.17;86.05
68107;BME280;54892;47.488;19.026;2022-09-16T00:50:13;99168.31;;;17.07;86.18
68107;BME280;54892;47.488;19.026;2022-09-16T00:53:20;99164.88;;;16.98;87.18
68107;BME280;54892;47.488;19.026;2022-09-16T00:56:25;99170.25;;;16.80;87.88
68107;BME280;54892;47.488;19.026;2022-09-16T00:59:30;99167.38;;;16.94;87.23
68107;BME280;54892;47.488;19.026;2022-09-16T01:02:35;99177.25;;;17.11;86.21
68107;BME280;54892;47.488;19.026;2022-09-16T01:05:40;99168.78;;;17.09;85.84
68107;BME280;54892;47.488;19.026;2022-09-16T01:08:44;99172.09;;;16.88;86.61
68107;BME280;54892;47.488;19.026;2022-09-16T01:11:48;99173.56;;;16.77;86.46
68107;BME280;54892;47.488;19.026;2022-09-16T01:14:51;99167.59;;;16.80;86.60
68107;BME280;54892;47.488;19.026;2022-09-16T01:18:02;99169.47;;;16.71;86.61
68107;BME280;54892;47.488;19.026;2022-09-16T01:21:24;99179.69;;;16.51;87.92
68107;BME280;54892;47.488;19.026;2022-09-16T01:24:51;99174.03;;;16.62;87.98
68107;BME280;54892;47.488;19.026;2022-09-16T01:28:17;99189.41;;;16.65;88.50
68107;BME280;54892;47.488;19.026;2022-09-16T01:31:27;99197.72;;;16.46;88.97
68107;BME280;54892;47.488;19.026;2022-09-16T01:34:40;99206.63;;;16.58;88.27
68107;BME280;54892;47.488;19.026;2022-09-16T01:37:52;99199.41;;;16.68;87.41
68107;BME280;54892;47.488;19.026;2022-09-16T01:41:05;99195.38;;;16.53;87.83
68107;BME280;54892;47.488;19.026;2022-09-16T01:44:16;99174.66;;;16.58;88.55
68107;BME280;54892;47.488;19.026;2022-09-16T01:47:31;99176.25;;;16.59;87.94
68107;BME280;54892;47.488;19.026;2022-09-16T01:50:40;99177.00;;;16.51;86.84
68107;BME280;54892;47.488;19.026;2022-09-16T01:53:47;99184.25;;;16.42;87.86
68107;BME280;54892;47.488;19.026;2022-09-16T01:56:59;99195.97;;;16.58;87.37
68107;BME280;54892;47.488;19.026;2022-09-16T02:00:07;99185.00;;;16.51;86.51
68107;BME280;54892;47.488;19.026;2022-09-16T02:03:15;99178.75;;;16.65;85.28
68107;BME280;54892;47.488;19.026;2022-09-16T02:06:22;99182.66;;;16.58;85.53
68107;BME280;54892;47.488;19.026;2022-09-16T02:09:29;99191.13;;;16.43;86.49
68107;BME280;54892;47.488;19.026;2022-09-16T02:12:39;99189.25;;;16.43;86.33
68107;BME280;54892;47.488;19.026;2022-09-16T02:15:47;99194.41;;;16.40;86.90
68107;BME280;54892;47.488;19.026;2022-09-16T02:18:55;99191.47;;;16.41;86.53
68107;BME280;54892;47.488;19.026;2022-09-16T02:22:03;99193.47;;;16.36;87.32
68107;BME280;54892;47.488;19.026;2022-09-16T02:25:09;99195.34;;;16.26;88.50
68107;BME280;54892;47.488;19.026;2022-09-16T02:28:21;99204.28;;;16.22;89.23
68107;BME280;54892;47.488;19.026;2022-09-16T02:31:30;99198.97;;;16.48;87.90
68107;BME280;54892;47.488;19.026;2022-09-16T02:34:38;99204.28;;;16.31;89.46
68107;BME280;54892;47.488;19.026;2022-09-16T02:37:47;99211.19;;;16.58;86.09
68107;BME280;54892;47.488;19.026;2022-09-16T02:40:54;99208.81;;;16.39;84.08
68107;BME280;54892;47.488;19.026;2022-09-16T02:43:58;99212.28;;;16.48;86.64
68107;BME280;54892;47.488;19.026;2022-09-16T02:47:06;99220.09;;;16.44;87.69
68107;BME280;54892;47.488;19.026;2022-09-16T02:50:16;99225.91;;;16.38;85.69
68107;BME280;54892;47.488;19.026;2022-09-16T02:53:29;99240.75;;;16.21;86.19
68107;BME280;54892;47.488;19.026;2022-09-16T02:56:37;99235.16;;;16.32;87.46
68107;BME280;54892;47.488;19.026;2022-09-16T02:59:41;99232.13;;;16.07;89.66
68107;BME280;54892;47.488;19.026;2022-09-16T03:02:44;99234.06;;;16.24;86.59
68107;BME280;54892;47.488;19.026;2022-09-16T03:06:09;99229.03;;;16.22;87.29
68107;BME280;54892;47.488;19.026;2022-09-16T03:09:15;99243.78;;;16.37;85.59
68107;BME280;54892;47.488;19.026;2022-09-16T03:12:27;99237.94;;;16.18;84.70
68107;BME280;54892;47.488;19.026;2022-09-16T03:15:49;99247.66;;;16.22;84.13
68107;BME280;54892;47.488;19.026;2022-09-16T03:19:03;99238.87;;;16.13;79.58
68107;BME280;54892;47.488;19.026;2022-09-16T03:22:17;99224.50;;;16.32;79.61
68107;BME280;54892;47.488;19.026;2022-09-16T03:25:33;99223.06;;;16.17;79.08
68107;BME280;54892;47.488;19.026;2022-09-16T03:28:45;99234.06;;;16.41;78.75
68107;BME280;54892;47.488;19.026;2022-09-16T03:31:53;99226.22;;;16.19;78.63
68107;BME280;54892;47.488;19.026;2022-09-16T03:35:01;99237.97;;;16.26;79.38
68107;BME280;54892;47.488;19.026;2022-09-16T03:38:07;99243.28;;;16.26;79.07
68107;BME280;54892;47.488;19.026;2022-09-16T03:41:14;99245.81;;;16.40;78.77
68107;BME280;54892;47.488;19.026;2022-09-16T03:44:18;99243.75;;;16.28;80.79
68107;BME280;54892;47.488;19.026;2022-09-16T03:47:21;99241.41;;;16.36;79.93
68107;BME280;54892;47.488;19.026;2022-09-16T03:50:25;99252.31;;;15.99;79.22
68107;BME280;54892;47.488;19.026;2022-09-16T03:53:29;99254.06;;;16.04;79.93
68107;BME280;54892;47.488;19.026;2022-09-16T03:56:33;99262.06;;;16.21;79.50
68107;BME280;54892;47.488;19.026;2022-09-16T03:59:36;99256.88;;;16.07;79.57
68107;BME280;54892;47.488;19.026;2022-09-16T04:02:39;99255.03;;;16.25;79.46
68107;BME280;54892;47.488;19.026;2022-09-16T04:05:42;99256.09;;;16.16;79.01
68107;BME280;54892;47.488;19.026;2022-09-16T04:08:47;99265.34;;;16.09;79.60
68107;BME280;54892;47.488;19.026;2022-09-16T04:11:51;99268.50;;;16.11;79.29
68107;BME280;54892;47.488;19.026;2022-09-16T04:14:55;99272.41;;;16.14;80.50
68107;BME280;54892;47.488;19.026;2022-09-16T04:17:59;99262.53;;;16.14;80.81
68107;BME280;54892;47.488;19.026;2022-09-16T04:21:02;99262.97;;;16.08;81.21
68107;BME280;54892;47.488;19.026;2022-09-16T04:24:08;99267.66;;;15.93;81.52
68107;BME280;54892;47.488;19.026;2022-09-16T04:27:14;99278.19;;;16.07;81.56
68107;BME280;54892;47.488;19.026;2022-09-16T04:30:17;99279.31;;;16.15;81.34
68107;BME280;54892;47.488;19.026;2022-09-16T04:33:21;99284.28;;;16.08;81.79
68107;BME280;54892;47.488;19.026;2022-09-16T04:36:24;99288.03;;;16.07;82.06
68107;BME280;54892;47.488;19.026;2022-09-16T04:39:29;99280.03;;;16.07;81.84
68107;BME280;54892;47.488;19.026;2022-09-16T04:42:32;99268.50;;;16.11;81.85
68107;BME280;54892;47.488;19.026;2022-09-16T04:45:36;99263.03;;;16.25;81.30
68107;BME280;54892;47.488;19.026;2022-09-16T04:48:39;99278.03;;;16.04;82.35
68107;BME280;54892;47.488;19.026;2022-09-16T04:51:42;99277.13;;;16.17;81.70
68107;BME280;54892;47.488;19.026;2022-09-16T04:54:46;99267.69;;;16.11;81.75
68107;BME280;54892;47.488;19.026;2022-09-16T04:57:50;99275.97;;;16.01;82.61
68107;BME280;54892;47.488;19.026;2022-09-16T05:00:53;99279.72;;;16.00;83.36
68107;BME280;54892;47.488;19.026;2022-09-16T05:03:58;99278.28;;;15.93;82.37
68107;BME280;54892;47.488;19.026;2022-09-16T05:07:02;99283.81;;;16.06;80.99
68107;BME280;54892;47.488;19.026;2022-09-16T05:10:08;99280.97;;;16.02;81.64
68107;BME280;54892;47.488;19.026;2022-09-16T05:13:11;99269.72;;;16.05;80.93
68107;BME280;54892;47.488;19.026;2022-09-16T05:16:15;99273.47;;;16.04;80.49
68107;BME280;54892;47.488;19.026;2022-09-16T05:19:19;99279.88;;;16.03;80.71
68107;BME280;54892;47.488;19.026;2022-09-16T05:22:22;99283.84;;;16.23;79.06
68107;BME280;54892;47.488;19.026;2022-09-16T05:25:27;99291.22;;;16.26;79.55
68107;BME280;54892;47.488;19.026;2022-09-16T05:28:31;99284.78;;;16.19;80.79
68107;BME280;54892;47.488;19.026;2022-09-16T05:31:35;99297.97;;;16.24;81.26
68107;BME280;54892;47.488;19.026;2022-09-16T05:34:39;99300.78;;;16.36;80.51
68107;BME280;54892;47.488;19.026;2022-09-16T05:37:42;99312.38;;;16.32;80.68
68107;BME280;54892;47.488;19.026;2022-09-16T05:40:47;99298.75;;;16.33;80.32
68107;BME280;54892;47.488;19.026;2022-09-16T05:43:50;99297.03;;;16.37;80.50
68107;BME280;54892;47.488;19.026;2022-09-16T05:46:54;99284.66;;;16.33;80.85
68107;BME280;54892;47.488;19.026;2022-09-16T05:49:57;99292.16;;;16.31;80.58
68107;BME280;54892;47.488;19.026;2022-09-16T05:53:00;99307.19;;;16.26;80.58
68107;BME280;54892;47.488;19.026;2022-09-16T05:56:08;99298.06;;;16.10;80.75
68107;BME280;54892;47.488;19.026;2022-09-16T05:59:13;99287.94;;;16.29;80.95
68107;BME280;54892;47.488;19.026;2022-09-16T06:02:16;99292.00;;;16.36;81.05
68107;BME280;54892;47.488;19.026;2022-09-16T06:05:19;99290.00;;;16.33;80.56
68107;BME280;54892;47.488;19.026;2022-09-16T06:08:23;99295.09;;;16.20;80.38
68107;BME280;54892;47.488;19.026;2022-09-16T06:11:28;99290.72;;;16.16;80.25
68107;BME280;54892;47.488;19.026;2022-09-16T06:14:31;99297.50;;;16.39;79.88
68107;BME280;54892;47.488;19.026;2022-09-16T06:17:34;99293.13;;;16.35;79.94
68107;BME280;54892;47.488;19.026;2022-09-16T06:20:38;99304.72;;;16.39;79.14
68107;BME280;54892;47.488;19.026;2022-09-16T06:23:41;99312.72;;;16.48;78.75
68107;BME280;54892;47.488;19.026;2022-09-16T06:26:47;99308.81;;;16.45;78.74
68107;BME280;54892;47.488;19.026;2022-09-16T06:29:50;99306.13;;;16.36;77.85
68107;BME280;54892;47.488;19.026;2022-09-16T06:32:54;99300.28;;;16.25;78.61
68107;BME280;54892;47.488;19.026;2022-09-16T06:35:57;99295.62;;;16.40;79.18
68107;BME280;54892;47.488;19.026;2022-09-16T06:39:04;99296.72;;;16.39;78.14
68107;BME280;54892;47.488;19.026;2022-09-16T06:42:09;99297.06;;;16.46;77.96
68107;BME280;54892;47.488;19.026;2022-09-16T06:45:12;99297.06;;;16.55;78.21
68107;BME280;54892;47.488;19.026;2022-09-16T06:48:15;99302.69;;;16.62;77.15
68107;BME280;54892;47.488;19.026;2022-09-16T06:51:20;99302.53;;;16.58;76.92
68107;BME280;54892;47.488;19.026;2022-09-16T06:54:23;99299.41;;;16.56;76.35
68107;BME280;54892;47.488;19.026;2022-09-16T06:57:29;99294.72;;;16.71;76.32
68107;BME280;54892;47.488;19.026;2022-09-16T07:00:32;99303.66;;;16.84;75.45
68107;BME280;54892;47.488;19.026;2022-09-16T07:03:36;99296.75;;;16.83;74.55
68107;BME280;54892;47.488;19.026;2022-09-16T07:06:40;99297.09;;;16.81;75.01
68107;BME280;54892;47.488;19.026;2022-09-16T07:10:04;99293.97;;;16.97;75.46
68107;BME280;54892;47.488;19.026;2022-09-16T07:13:08;99309.78;;;17.11;74.89
68107;BME280;54892;47.488;19.026;2022-09-16T07:16:12;99309.75;;;17.19;73.89
68107;BME280;54892;47.488;19.026;2022-09-16T07:19:16;99300.50;;;17.26;74.01
68107;BME280;54892;47.488;19.026;2022-09-16T07:22:19;99311.16;;;17.34;74.63
68107;BME280;54892;47.488;19.026;2022-09-16T07:25:22;99323.22;;;17.41;73.63
68107;BME280;54892;47.488;19.026;2022-09-16T07:28:26;99312.38;;;17.46;73.50
68107;BME280;54892;47.488;19.026;2022-09-16T07:31:31;99317.56;;;17.51;74.67
68107;BME280;54892;47.488;19.026;2022-09-16T07:34:35;99324.28;;;17.57;74.39
68107;BME280;54892;47.488;19.026;2022-09-16T07:37:38;99324.56;;;17.64;71.07
68107;BME280;54892;47.488;19.026;2022-09-16T07:40:43;99325.28;;;17.83;71.27
68107;BME280;54892;47.488;19.026;2022-09-16T07:43:47;99330.09;;;17.50;72.45
68107;BME280;54892;47.488;19.026;2022-09-16T07:46:51;99334.81;;;17.54;70.04
68107;BME280;54892;47.488;19.026;2022-09-16T07:49:54;99339.97;;;17.59;70.14
68107;BME280;54892;47.488;19.026;2022-09-16T07:52:58;99331.97;;;17.59;69.38
68107;BME280;54892;47.488;19.026;2022-09-16T07:56:03;99337.72;;;17.70;70.55
68107;BME280;54892;47.488;19.026;2022-09-16T07:59:12;99341.44;;;17.86;70.58
68107;BME280;54892;47.488;19.026;2022-09-16T08:02:16;99343.03;;;17.78;68.96
68107;BME280;54892;47.488;19.026;2022-09-16T08:05:20;99346.78;;;17.86;70.36
68107;BME280;54892;47.488;19.026;2022-09-16T08:08:22;99348.25;;;17.66;67.53
68107;BME280;54892;47.488;19.026;2022-09-16T08:11:25;99356.50;;;17.34;65.31
68107;BME280;54892;47.488;19.026;2022-09-16T08:14:30;99355.56;;;17.39;66.46
68107;BME280;54892;47.488;19.026;2022-09-16T08:17:34;99360.25;;;17.51;65.48
68107;BME280;54892;47.488;19.026;2022-09-16T08:20:37;99366.34;;;17.60;67.01
68107;BME280;54892;47.488;19.026;2022-09-16T08:23:40;99363.56;;;17.39;65.13
68107;BME280;54892;47.488;19.026;2022-09-16T08:26:44;99355.22;;;17.49;65.96
68107;BME280;54892;47.488;19.026;2022-09-16T08:29:48;99361.34;;;17.41;66.23
68107;BME280;54892;47.488;19.026;2022-09-16T08:32:54;99346.75;;;17.30;67.69
68107;BME280;54892;47.488;19.026;2022-09-16T08:35:58;99356.34;;;17.31;67.34
68107;BME280;54892;47.488;19.026;2022-09-16T08:39:01;99358.53;;;17.38;66.64
68107;BME280;54892;47.488;19.026;2022-09-16T08:42:28;99350.22;;;17.39;67.10
68107;BME280;54892;47.488;19.026;2022-09-16T08:45:40;99358.25;;;17.13;66.86
68107;BME280;54892;47.488;19.026;2022-09-16T08:48:48;99355.56;;;17.22;67.13
68107;BME280;54892;47.488;19.026;2022-09-16T08:51:56;99349.25;;;17.44;67.54
68107;BME280;54892;47.488;19.026;2022-09-16T08:55:03;99353.03;;;17.34;65.05
68107;BME280;54892;47.488;19.026;2022-09-16T08:58:12;99358.38;;;17.16;65.81
68107;BME280;54892;47.488;19.026;2022-09-16T09:01:22;99354.47;;;17.23;66.00
68107;BME280;54892;47.488;19.026;2022-09-16T09:04:28;99365.75;;;17.37;65.76
68107;BME280;54892;47.488;19.026;2022-09-16T09:07:38;99374.22;;;17.30;65.90
68107;BME280;54892;47.488;19.026;2022-09-16T09:10:48;99385.97;;;17.56;66.07
68107;BME280;54892;47.488;19.026;2022-09-16T09:13:55;99374.22;;;17.39;64.73
68107;BME280;54892;47.488;19.026;2022-09-16T09:17:09;99375.59;;;17.45;64.73
68107;BME280;54892;47.488;19.026;2022-09-16T09:20:25;99361.84;;;17.43;65.22
68107;BME280;54892;47.488;19.026;2022-09-16T09:23:34;99365.75;;;17.37;66.02
68107;BME280;54892;47.488;19.026;2022-09-16T09:26:47;99352.28;;;17.33;65.27
68107;BME280;54892;47.488;19.026;2022-09-16T09:30:11;99347.69;;;17.52;64.99
68107;BME280;54892;47.488;19.026;2022-09-16T09:33:24;99349.41;;;17.39;66.87
68107;BME280;54892;47.488;19.026;2022-09-16T09:36:56;99358.38;;;17.43;63.99
68107;BME280;54892;47.488;19.026;2022-09-16T09:40:10;99358.22;;;17.39;64.56
68107;BME280;54892;47.488;19.026;2022-09-16T09:43:18;99358.22;;;17.39;63.27
68107;BME280;54892;47.488;19.026;2022-09-16T09:46:24;99359.59;;;17.54;66.04
68107;BME280;54892;47.488;19.026;2022-09-16T09:49:34;99363.56;;;17.39;62.74
68107;BME280;54892;47.488;19.026;2022-09-16T09:52:43;99369.00;;;17.60;63.12
68107;BME280;54892;47.488;19.026;2022-09-16T09:55:51;99355.16;;;17.67;63.23
68107;BME280;54892;47.488;19.026;2022-09-16T09:59:03;99355.25;;;17.88;63.91
68107;BME280;54892;47.488;19.026;2022-09-16T10:02:14;99348.81;;;17.98;63.84
68107;BME280;54892;47.488;19.026;2022-09-16T10:05:23;99338.44;;;18.05;62.34
68107;BME280;54892;47.488;19.026;2022-09-16T10:08:28;99330.22;;;18.10;59.75
68107;BME280;54892;47.488;19.026;2022-09-16T10:11:32;99330.22;;;18.10;60.76
68107;BME280;54892;47.488;19.026;2022-09-16T10:14:36;99332.59;;;18.12;58.13
68107;BME280;54892;47.488;19.026;2022-09-16T10:17:47;99338.31;;;18.23;58.45
68107;BME280;54892;47.488;19.026;2022-09-16T10:20:59;99338.69;;;18.13;56.07
68107;BME280;54892;47.488;19.026;2022-09-16T10:24:04;99339.41;;;18.22;56.56
68107;BME280;54892;47.488;19.026;2022-09-16T10:27:19;99346.09;;;18.07;55.74
68107;BME280;54892;47.488;19.026;2022-09-16T10:30:23;99335.78;;;17.96;54.81
68107;BME280;54892;47.488;19.026;2022-09-16T10:33:29;99337.94;;;18.12;56.15
68107;BME280;54892;47.488;19.026;2022-09-16T10:36:34;99329.28;;;18.06;57.16
68107;BME280;54892;47.488;19.026;2022-09-16T10:39:38;99333.22;;;18.09;55.65
68107;BME280;54892;47.488;19.026;2022-09-16T10:42:45;99333.81;;;18.15;56.58
68107;BME280;54892;47.488;19.026;2022-09-16T10:45:51;99335.22;;;18.21;55.76
68107;BME280;54892;47.488;19.026;2022-09-16T10:48:58;99327.97;;;18.21;55.61
68107;BME280;54892;47.488;19.026;2022-09-16T10:52:17;99326.88;;;18.22;54.87
68107;BME280;54892;47.488;19.026;2022-09-16T10:55:28;99331.37;;;18.31;53.80
68107;BME280;54892;47.488;19.026;2022-09-16T10:58:33;99334.88;;;18.22;54.67
68107;BME280;54892;47.488;19.026;2022-09-16T11:01:42;99345.56;;;18.22;54.17
68107;BME280;54892;47.488;19.026;2022-09-16T11:04:57;99344.75;;;18.22;52.54
68107;BME280;54892;47.488;19.026;2022-09-16T11:08:11;99340.69;;;18.24;51.74
68107;BME280;54892;47.488;19.026;2022-09-16T11:11:26;99346.97;;;18.29;51.59
68107;BME280;54892;47.488;19.026;2022-09-16T11:14:40;99343.50;;;18.28;52.23
68107;BME280;54892;47.488;19.026;2022-09-16T11:17:59;99344.03;;;18.42;53.45
68107;BME280;54892;47.488;19.026;2022-09-16T11:21:18;99340.53;;;18.51;57.59
68107;BME280;54892;47.488;19.026;2022-09-16T11:24:40;99338.00;;;18.54;60.27
68107;BME280;54892;47.488;19.026;2022-09-16T11:27:51;99338.25;;;18.62;60.05
68107;BME280;54892;47.488;19.026;2022-09-16T11:31:08;99332.59;;;18.63;60.21
68107;BME280;54892;47.488;19.026;2022-09-16T11:34:24;99319.09;;;18.81;57.94
68107;BME280;54892;47.488;19.026;2022-09-16T11:37:33;99325.81;;;18.66;58.84
68107;BME280;54892;47.488;19.026;2022-09-16T11:40:45;99311.03;;;18.68;58.98
68107;BME280;54892;47.488;19.026;2022-09-16T11:44:00;99315.91;;;18.87;56.93
68107;BME280;54892;47.488;19.026;2022-09-16T11:47:19;99316.16;;;18.95;57.27
68107;BME280;54892;47.488;19.026;2022-09-16T11:50:34;99310.88;;;19.07;55.76
68107;BME280;54892;47.488;19.026;2022-09-16T11:53:48;99309.97;;;19.03;56.14
68107;BME280;54892;47.488;19.026;2022-09-16T11:56:59;99301.81;;;18.99;57.10
68107;BME280;54892;47.488;19.026;2022-09-16T12:00:05;99298.94;;;19.05;56.25
68107;BME280;54892;47.488;19.026;2022-09-16T12:03:17;99294.22;;;19.01;57.58
68107;BME280;54892;47.488;19.026;2022-09-16T12:06:28;99299.03;;;19.08;57.15
68107;BME280;54892;47.488;19.026;2022-09-16T12:09:37;99298.00;;;19.22;56.33
68107;BME280;54892;47.488;19.026;2022-09-16T12:12:47;99286.69;;;19.16;56.72
68107;BME280;54892;47.488;19.026;2022-09-16T12:15:55;99278.00;;;19.07;56.73
68107;BME280;54892;47.488;19.026;2022-09-16T12:19:02;99288.25;;;19.17;56.57
68107;BME280;54892;47.488;19.026;2022-09-16T12:22:09;99288.94;;;19.14;56.41
68107;BME280;54892;47.488;19.026;2022-09-16T12:25:21;99282.25;;;19.20;56.31
68107;BME280;54892;47.488;19.026;2022-09-16T12:28:32;99287.25;;;19.09;56.58
68107;BME280;54892;47.488;19.026;2022-09-16T12:31:41;99276.97;;;18.99;58.23
68107;BME280;54892;47.488;19.026;2022-09-16T12:34:49;99275.41;;;18.98;59.59
68107;BME280;54892;47.488;19.026;2022-09-16T12:37:56;99282.88;;;19.05;59.19
68107;BME280;54892;47.488;19.026;2022-09-16T12:41:11;99278.00;;;19.07;58.75
68107;BME280;54892;47.488;19.026;2022-09-16T12:44:34;99277.78;;;19.12;57.36
68107;BME280;54892;47.488;19.026;2022-09-16T12:48:05;99264.69;;;18.98;58.55
68107;BME280;54892;47.488;19.026;2022-09-16T12:51:25;99273.88;;;19.09;57.70
68107;BME280;54892;47.488;19.026;2022-09-16T12:54:50;99261.03;;;19.02;57.40
68107;BME280;54892;47.488;19.026;2022-09-16T12:58:18;99254.37;;;19.09;56.11
68107;BME280;54892;47.488;19.026;2022-09-16T13:01:28;99253.34;;;19.01;56.55
68107;BME280;54892;47.488;19.026;2022-09-16T13:04:38;99257.66;;;18.93;58.42
68107;BME280;54892;47.488;19.026;2022-09-16T13:07:47;99248.53;;;18.94;58.24
68107;BME280;54892;47.488;19.026;2022-09-16T13:10:56;99249.94;;;19.13;57.62
68107;BME280;54892;47.488;19.026;2022-09-16T13:14:23;99247.37;;;19.16;56.26
68107;BME280;54892;47.488;19.026;2022-09-16T13:17:30;99253.91;;;19.07;58.21
68107;BME280;54892;47.488;19.026;2022-09-16T13:20:36;99242.38;;;19.15;55.61
68107;BME280;54892;47.488;19.026;2022-09-16T13:23:45;99240.13;;;19.17;56.17
68107;BME280;54892;47.488;19.026;2022-09-16T13:26:50;99242.59;;;19.22;55.54
68107;BME280;54892;47.488;19.026;2022-09-16T13:30:15;99249.03;;;19.09;57.41
68107;BME280;54892;47.488;19.026;2022-09-16T13:33:24;99253.06;;;19.15;57.59
68107;BME280;54892;47.488;19.026;2022-09-16T13:36:30;99243.91;;;19.16;57.65
68107;BME280;54892;47.488;19.026;2022-09-16T13:39:34;99237.34;;;19.26;57.20
68107;BME280;54892;47.488;19.026;2022-09-16T13:42:37;99245.38;;;19.26;57.71
68107;BME280;54892;47.488;19.026;2022-09-16T13:45:42;99236.56;;;19.25;58.45
68107;BME280;54892;47.488;19.026;2022-09-16T13:48:50;99230.13;;;19.26;57.02
68107;BME280;54892;47.488;19.026;2022-09-16T13:51:57;99231.44;;;19.32;57.00
68107;BME280;54892;47.488;19.026;2022-09-16T13:55:02;99225.63;;;19.18;58.07
68107;BME280;54892;47.488;19.026;2022-09-16T13:58:16;99227.19;;;19.19;57.55
68107;BME280;54892;47.488;19.026;2022-09-16T14:01:29;99211.38;;;19.26;58.26
68107;BME280;54892;47.488;19.026;2022-09-16T14:05:01;99207.34;;;19.20;58.75
68107;BME280;54892;47.488;19.026;2022-09-16T14:08:16;99205.12;;;19.22;58.50
68107;BME280;54892;47.488;19.026;2022-09-16T14:11:26;99201.69;;;19.22;58.55
68107;BME280;54892;47.488;19.026;2022-09-16T14:14:34;99199.88;;;19.26;59.11
68107;BME280;54892;47.488;19.026;2022-09-16T14:17:49;99192.44;;;19.31;58.38
68107;BME280;54892;47.488;19.026;2022-09-16T14:20:59;99200.78;;;19.30;58.10
68107;BME280;54892;47.488;19.026;2022-09-16T14:24:10;99204.69;;;19.32;57.32
68107;BME280;54892;47.488;19.026;2022-09-16T14:27:19;99204.69;;;19.20;58.06
68107;BME280;54892;47.488;19.026;2022-09-16T14:30:22;99197.41;;;19.08;57.62
68107;BME280;54892;47.488;19.026;2022-09-16T14:33:30;99199.22;;;19.04;57.70
68107;BME280;54892;47.488;19.026;2022-09-16T14:36:37;99197.25;;;18.92;58.80
68107;BME280;54892;47.488;19.026;2022-09-16T14:39:44;99196.88;;;18.81;59.04
68107;BME280;54892;47.488;19.026;2022-09-16T14:42:51;99198.38;;;18.91;59.35
68107;BME280;54892;47.488;19.026;2022-09-16T14:45:55;99199.91;;;18.80;59.73
68107;BME280;54892;47.488;19.026;2022-09-16T14:49:02;99198.56;;;18.86;59.55
68107;BME280;54892;47.488;19.026;2022-09-16T14:52:17;99185.41;;;18.81;59.83
68107;BME280;54892;47.488;19.026;2022-09-16T14:55:22;99166.47;;;18.74;60.21
68107;BME280;54892;47.488;19.026;2022-09-16T14:58:27;99176.59;;;18.80;59.37
68107;BME280;54892;47.488;19.026;2022-09-16T15:01:31;99184.25;;;18.69;60.88
68107;BME280;54892;47.488;19.026;2022-09-16T15:04:37;99162.87;;;18.69;61.68
68107;BME280;54892;47.488;19.026;2022-09-16T15:07:43;99167.09;;;18.70;62.07
68107;BME280;54892;47.488;19.026;2022-09-16T15:10:58;99167.56;;;18.72;63.07
68107;BME280;54892;47.488;19.026;2022-09-16T15:14:05;99167.56;;;18.72;63.59
68107;BME280;54892;47.488;19.026;2022-09-16T15:17:15;99183.75;;;18.76;63.58
68107;BME280;54892;47.488;19.026;2022-09-16T15:20:22;99184.94;;;18.66;64.27
68107;BME280;54892;47.488;19.026;2022-09-16T15:23:27;99186.25;;;18.60;65.01
68107;BME280;54892;47.488;19.026;2022-09-16T15:26:40;99196.00;;;18.56;65.38
68107;BME280;54892;47.488;19.026;2022-09-16T15:29:46;99189.00;;;18.51;65.52
68107;BME280;54892;47.488;19.026;2022-09-16T15:32:51;99184.19;;;18.45;65.72
68107;BME280;54892;47.488;19.026;2022-09-16T15:35:55;99190.16;;;18.41;65.68
68107;BME280;54892;47.488;19.026;2022-09-16T15:38:59;99183.72;;;18.42;65.83
68107;BME280;54892;47.488;19.026;2022-09-16T15:42:09;99182.69;;;18.35;66.23
68107;BME280;54892;47.488;19.026;2022-09-16T15:45:16;99186.84;;;18.45;65.64
68107;BME280;54892;47.488;19.026;2022-09-16T15:48:20;99189.94;;;18.34;65.97
68107;BME280;54892;47.488;19.026;2022-09-16T15:51:30;99197.88;;;18.22;66.70
68107;BME280;54892;47.488;19.026;2022-09-16T15:54:37;99196.44;;;18.24;66.77
68107;BME280;54892;47.488;19.026;2022-09-16T15:57:47;99190.06;;;18.17;67.27
68107;BME280;54892;47.488;19.026;2022-09-16T16:00:58;99189.66;;;18.27;67.18
68107;BME280;54892;47.488;19.026;2022-09-16T16:04:04;99182.81;;;18.17;66.86
68107;BME280;54892;47.488;19.026;2022-09-16T16:07:09;99172.91;;;17.96;67.88
68107;BME280;54892;47.488;19.026;2022-09-16T16:10:16;99176.50;;;18.01;68.13
68107;BME280;54892;47.488;19.026;2022-09-16T16:13:21;99167.75;;;17.91;68.17
68107;BME280;54892;47.488;19.026;2022-09-16T16:16:25;99173.22;;;17.95;67.94
68107;BME280;54892;47.488;19.026;2022-09-16T16:19:28;99172.50;;;17.86;68.55
68107;BME280;54892;47.488;19.026;2022-09-16T16:22:32;99162.41;;;17.91;67.81